sensor_id;sensor_type;location;lat;lon;timestamp;pressure;altitude;pressure_sealevel;temperature;humidity
32875;BME280;40468;42.128;24.750;2022-07-18T00:00:22;100138.50;;;24.37;32.09
32875;BME280;40468;42.128;24.750;2022-07-18T00:01:54;100132.34;;;24.36;31.78
32875;BME280;40468;42.128;24.750;2022-07-18T00:03:25;100131.94;;;24.31;32.05
32875;BME280;40468;42.128;24.750;2022-07-18T00:04:56;100139.41;;;24.27;32.08
32875;BME280;40468;42.128;24.750;2022-07-18T00:06:28;100136.06;;;24.25;32.12
32875;BME280;40468;42.128;24.750;2022-07-18T00:08:00;100145.19;;;24.23;32.19
32875;BME280;40468;42.128;24.750;2022-07-18T00:09:31;100150.94;;;24.18;32.19
32875;BME280;40468;42.128;24.750;2022-07-18T00:11:02;100143.25;;;24.15;32.12
32875;BME280;40468;42.128;24.750;2022-07-18T00:12:34;100139.91;;;24.13;32.20
32875;BME280;40468;42.128;24.750;2022-07-18T00:14:05;100145.53;;;24.10;31.74
32875;BME280;40468;42.128;24.750;2022-07-18T00:15:37;100140.19;;;24.10;31.93
32875;BME280;40468;42.128;24.750;2022-07-18T00:17:09;100148.47;;;24.07;32.04
32875;BME280;40468;42.128;24.750;2022-07-18T00:18:39;100148.78;;;24.04;31.62
32875;BME280;40468;42.128;24.750;2022-07-18T00:20:12;100147.53;;;23.98;31.53
32875;BME280;40468;42.128;24.750;2022-07-18T00:21:43;100148.53;;;23.97;31.56
32875;BME280;40468;42.128;24.750;2022-07-18T00:23:15;100141.38;;;23.98;31.56
32875;BME280;40468;42.128;24.750;2022-07-18T00:24:47;100145.88;;;23.97;31.21
32875;BME280;40468;42.128;24.750;2022-07-18T00:26:18;100155.97;;;23.94;31.22
32875;BME280;40468;42.128;24.750;2022-07-18T00:27:50;100148.41;;;23.89;31.18
32875;BME280;40468;42.128;24.750;2022-07-18T00:29:21;100151.53;;;23.84;30.67
32875;BME280;40468;42.128;24.750;2022-07-18T00:30:53;100150.13;;;23.80;30.88
32875;BME280;40468;42.128;24.750;2022-07-18T00:32:25;100145.66;;;23.81;30.63
32875;BME280;40468;42.128;24.750;2022-07-18T00:33:56;100149.31;;;23.80;30.25
32875;BME280;40468;42.128;24.750;2022-07-18T00:35:28;100144.28;;;23.77;29.91
32875;BME280;40468;42.128;24.750;2022-07-18T00:36:59;100144.03;;;23.70;29.92
32875;BME280;40468;42.128;24.750;2022-07-18T00:38:32;100153.09;;;23.68;29.75
32875;BME280;40468;42.128;24.750;2022-07-18T00:40:04;100149.06;;;23.64;29.85
32875;BME280;40468;42.128;24.750;2022-07-18T00:41:36;100153.69;;;23.61;29.75
32875;BME280;40468;42.128;24.750;2022-07-18T00:43:07;100150.47;;;23.58;29.41
32875;BME280;40468;42.128;24.750;2022-07-18T00:44:39;100151.59;;;23.55;29.57
32875;BME280;40468;42.128;24.750;2022-07-18T00:46:11;100156.09;;;23.55;29.46
32875;BME280;40468;42.128;24.750;2022-07-18T00:47:42;100158.03;;;23.53;29.45
32875;BME280;40468;42.128;24.750;2022-07-18T00:49:14;100151.06;;;23.52;29.33
32875;BME280;40468;42.128;24.750;2022-07-18T00:50:46;100158.31;;;23.50;29.20
32875;BME280;40468;42.128;24.750;2022-07-18T00:52:18;100155.97;;;23.47;29.17
32875;BME280;40468;42.128;24.750;2022-07-18T00:53:51;100158.06;;;23.43;29.46
32875;BME280;40468;42.128;24.750;2022-07-18T00:55:22;100147.84;;;23.38;29.21
32875;BME280;40468;42.128;24.750;2022-07-18T00:56:54;100153.31;;;23.37;29.12
32875;BME280;40468;42.128;24.750;2022-07-18T00:58:25;100146.59;;;23.33;28.90
32875;BME280;40468;42.128;24.750;2022-07-18T00:59:57;100155.69;;;23.30;29.00
32875;BME280;40468;42.128;24.750;2022-07-18T01:01:46;100158.63;;;23.27;29.15
32875;BME280;40468;42.128;24.750;2022-07-18T01:03:17;100159.75;;;23.25;29.16
32875;BME280;40468;42.128;24.750;2022-07-18T01:04:49;100154.59;;;23.23;28.96
32875;BME280;40468;42.128;24.750;2022-07-18T01:06:20;100155.59;;;23.22;29.10
32875;BME280;40468;42.128;24.750;2022-07-18T01:07:52;100154.72;;;23.22;29.18
32875;BME280;40468;42.128;24.750;2022-07-18T01:09:25;100160.91;;;23.22;28.98
32875;BME280;40468;42.128;24.750;2022-07-18T01:10:55;100160.19;;;23.20;28.93
32875;BME280;40468;42.128;24.750;2022-07-18T01:12:27;100165.78;;;23.17;29.13
32875;BME280;40468;42.128;24.750;2022-07-18T01:13:59;100169.69;;;23.13;28.95
32875;BME280;40468;42.128;24.750;2022-07-18T01:15:31;100165.38;;;23.12;29.15
32875;BME280;40468;42.128;24.750;2022-07-18T01:17:03;100164.81;;;23.08;28.97
32875;BME280;40468;42.128;24.750;2022-07-18T01:18:43;100159.50;;;23.08;29.24
32875;BME280;40468;42.128;24.750;2022-07-18T01:20:15;100160.63;;;23.06;29.08
32875;BME280;40468;42.128;24.750;2022-07-18T01:21:48;100161.75;;;23.03;29.18
32875;BME280;40468;42.128;24.750;2022-07-18T01:23:19;100161.91;;;23.02;29.13
32875;BME280;40468;42.128;24.750;2022-07-18T01:24:50;100158.66;;;22.98;29.28
32875;BME280;40468;42.128;24.750;2022-07-18T01:26:22;100152.81;;;22.94;29.06
32875;BME280;40468;42.128;24.750;2022-07-18T01:27:54;100161.16;;;22.90;29.19
32875;BME280;40468;42.128;24.750;2022-07-18T01:29:27;100160.59;;;22.86;29.34
32875;BME280;40468;42.128;24.750;2022-07-18T01:30:58;100157.25;;;22.84;29.39
32875;BME280;40468;42.128;24.750;2022-07-18T01:32:30;100158.91;;;22.85;29.20
32875;BME280;40468;42.128;24.750;2022-07-18T01:34:02;100153.88;;;22.82;29.50
32875;BME280;40468;42.128;24.750;2022-07-18T01:35:32;100159.75;;;22.86;29.29
32875;BME280;40468;42.128;24.750;2022-07-18T01:37:06;100154.59;;;22.84;29.33
32875;BME280;40468;42.128;24.750;2022-07-18T01:38:37;100154.72;;;22.83;29.50
32875;BME280;40468;42.128;24.750;2022-07-18T01:40:10;100161.03;;;22.82;29.53
32875;BME280;40468;42.128;24.750;2022-07-18T01:41:41;100168.16;;;22.81;29.42
32875;BME280;40468;42.128;24.750;2022-07-18T01:43:13;100162.00;;;22.81;29.51
32875;BME280;40468;42.128;24.750;2022-07-18T01:44:44;100159.34;;;22.81;29.62
32875;BME280;40468;42.128;24.750;2022-07-18T01:46:16;100160.03;;;22.83;29.57
32875;BME280;40468;42.128;24.750;2022-07-18T01:47:48;100161.16;;;22.80;29.69
32875;BME280;40468;42.128;24.750;2022-07-18T01:49:20;100166.44;;;22.80;29.83
32875;BME280;40468;42.128;24.750;2022-07-18T01:50:51;100159.47;;;22.79;29.90
32875;BME280;40468;42.128;24.750;2022-07-18T01:52:24;100166.06;;;22.75;30.09
32875;BME280;40468;42.128;24.750;2022-07-18T01:53:56;100167.00;;;22.74;30.03
32875;BME280;40468;42.128;24.750;2022-07-18T01:55:29;100165.47;;;22.71;30.23
32875;BME280;40468;42.128;24.750;2022-07-18T01:57:00;100168.56;;;22.67;30.19
32875;BME280;40468;42.128;24.750;2022-07-18T01:58:32;100171.50;;;22.64;30.37
32875;BME280;40468;42.128;24.750;2022-07-18T02:00:04;100168.00;;;22.63;30.37
32875;BME280;40468;42.128;24.750;2022-07-18T02:01:36;100166.44;;;22.61;30.58
32875;BME280;40468;42.128;24.750;2022-07-18T02:03:06;100163.91;;;22.59;30.49
32875;BME280;40468;42.128;24.750;2022-07-18T02:04:38;100171.06;;;22.59;30.65
32875;BME280;40468;42.128;24.750;2022-07-18T02:06:27;100172.03;;;22.58;30.67
32875;BME280;40468;42.128;24.750;2022-07-18T02:08:00;100175.94;;;22.54;30.88
32875;BME280;40468;42.128;24.750;2022-07-18T02:09:31;100170.22;;;22.48;30.85
32875;BME280;40468;42.128;24.750;2022-07-18T02:11:02;100172.72;;;22.50;30.97
32875;BME280;40468;42.128;24.750;2022-07-18T02:12:34;100175.63;;;22.47;30.95
32875;BME280;40468;42.128;24.750;2022-07-18T02:14:06;100182.22;;;22.43;31.38
32875;BME280;40468;42.128;24.750;2022-07-18T02:15:37;100179.00;;;22.39;31.18
32875;BME280;40468;42.128;24.750;2022-07-18T02:17:09;100175.34;;;22.40;31.43
32875;BME280;40468;42.128;24.750;2022-07-18T02:18:39;100179.81;;;22.40;31.33
32875;BME280;40468;42.128;24.750;2022-07-18T02:20:12;100181.06;;;22.36;31.42
32875;BME280;40468;42.128;24.750;2022-07-18T02:21:44;100181.91;;;22.36;31.56
32875;BME280;40468;42.128;24.750;2022-07-18T02:23:16;100177.56;;;22.35;31.68
32875;BME280;40468;42.128;24.750;2022-07-18T02:24:47;100188.91;;;22.37;31.52
32875;BME280;40468;42.128;24.750;2022-07-18T02:26:19;100187.91;;;22.38;31.69
32875;BME280;40468;42.128;24.750;2022-07-18T02:27:50;100186.25;;;22.37;31.90
32875;BME280;40468;42.128;24.750;2022-07-18T02:29:22;100190.97;;;22.34;31.85
32875;BME280;40468;42.128;24.750;2022-07-18T02:30:52;100184.25;;;22.30;32.01
32875;BME280;40468;42.128;24.750;2022-07-18T02:32:24;100191.25;;;22.31;32.00
32875;BME280;40468;42.128;24.750;2022-07-18T02:33:56;100189.72;;;22.28;32.22
32875;BME280;40468;42.128;24.750;2022-07-18T02:35:28;100187.59;;;22.22;32.29
32875;BME280;40468;42.128;24.750;2022-07-18T02:36:59;100192.34;;;22.18;32.56
32875;BME280;40468;42.128;24.750;2022-07-18T02:38:32;100196.19;;;22.14;32.71
32875;BME280;40468;42.128;24.750;2022-07-18T02:40:05;100188.66;;;22.10;32.77
32875;BME280;40468;42.128;24.750;2022-07-18T02:41:37;100192.78;;;22.02;33.13
32875;BME280;40468;42.128;24.750;2022-07-18T02:43:07;100199.19;;;22.00;33.17
32875;BME280;40468;42.128;24.750;2022-07-18T02:44:39;100194.16;;;21.97;33.22
32875;BME280;40468;42.128;24.750;2022-07-18T02:46:11;100189.94;;;21.94;33.25
32875;BME280;40468;42.128;24.750;2022-07-18T02:47:42;100199.03;;;21.92;33.29
32875;BME280;40468;42.128;24.750;2022-07-18T02:49:14;100201.69;;;21.92;33.38
32875;BME280;40468;42.128;24.750;2022-07-18T02:50:56;100205.03;;;21.94;33.12
32875;BME280;40468;42.128;24.750;2022-07-18T02:52:28;100202.25;;;21.95;33.17
32875;BME280;40468;42.128;24.750;2022-07-18T02:54:01;100204.06;;;21.95;33.22
32875;BME280;40468;42.128;24.750;2022-07-18T02:55:31;100208.41;;;21.96;33.25
32875;BME280;40468;42.128;24.750;2022-07-18T02:57:03;100210.06;;;21.97;33.29
32875;BME280;40468;42.128;24.750;2022-07-18T02:58:35;100208.25;;;21.97;33.33
32875;BME280;40468;42.128;24.750;2022-07-18T03:00:07;100209.13;;;21.98;33.15
32875;BME280;40468;42.128;24.750;2022-07-18T03:01:39;100206.31;;;21.99;33.16
32875;BME280;40468;42.128;24.750;2022-07-18T03:03:09;100206.31;;;21.99;33.20
32875;BME280;40468;42.128;24.750;2022-07-18T03:04:41;100201.41;;;21.95;33.14
32875;BME280;40468;42.128;24.750;2022-07-18T03:06:13;100206.84;;;21.93;33.10
32875;BME280;40468;42.128;24.750;2022-07-18T03:07:43;100196.63;;;21.89;33.32
32875;BME280;40468;42.128;24.750;2022-07-18T03:09:16;100206.66;;;21.85;33.49
32875;BME280;40468;42.128;24.750;2022-07-18T03:10:48;100206.09;;;21.81;33.50
32875;BME280;40468;42.128;24.750;2022-07-18T03:12:20;100209.84;;;21.79;33.46
32875;BME280;40468;42.128;24.750;2022-07-18T03:13:51;100210.09;;;21.76;33.26
32875;BME280;40468;42.128;24.750;2022-07-18T03:15:22;100208.69;;;21.72;33.65
32875;BME280;40468;42.128;24.750;2022-07-18T03:16:53;100206.31;;;21.69;33.63
32875;BME280;40468;42.128;24.750;2022-07-18T03:18:24;100211.59;;;21.69;33.55
32875;BME280;40468;42.128;24.750;2022-07-18T03:19:56;100211.03;;;21.65;33.64
32875;BME280;40468;42.128;24.750;2022-07-18T03:21:27;100205.84;;;21.64;33.48
32875;BME280;40468;42.128;24.750;2022-07-18T03:23:03;100207.66;;;21.63;33.46
32875;BME280;40468;42.128;24.750;2022-07-18T03:24:36;100207.78;;;21.62;33.31
32875;BME280;40468;42.128;24.750;2022-07-18T03:26:08;100202.63;;;21.60;33.41
32875;BME280;40468;42.128;24.750;2022-07-18T03:27:40;100206.22;;;21.59;33.25
32875;BME280;40468;42.128;24.750;2022-07-18T03:29:12;100209.03;;;21.57;33.39
32875;BME280;40468;42.128;24.750;2022-07-18T03:30:43;100206.50;;;21.56;33.25
32875;BME280;40468;42.128;24.750;2022-07-18T03:32:14;100208.19;;;21.57;33.20
32875;BME280;40468;42.128;24.750;2022-07-18T03:33:45;100207.34;;;21.56;33.17
32875;BME280;40468;42.128;24.750;2022-07-18T03:35:17;100211.66;;;21.57;33.18
32875;BME280;40468;42.128;24.750;2022-07-18T03:36:49;100207.22;;;21.58;33.27
32875;BME280;40468;42.128;24.750;2022-07-18T03:38:20;100208.63;;;21.62;33.30
32875;BME280;40468;42.128;24.750;2022-07-18T03:39:52;100210.44;;;21.62;33.00
32875;BME280;40468;42.128;24.750;2022-07-18T03:41:24;100207.09;;;21.60;32.95
32875;BME280;40468;42.128;24.750;2022-07-18T03:42:55;100207.94;;;21.60;32.97
32875;BME280;40468;42.128;24.750;2022-07-18T03:44:27;100207.78;;;21.62;32.94
32875;BME280;40468;42.128;24.750;2022-07-18T03:45:57;100214.06;;;21.61;32.68
32875;BME280;40468;42.128;24.750;2022-07-18T03:47:29;100210.44;;;21.62;32.42
32875;BME280;40468;42.128;24.750;2022-07-18T03:49:00;100214.63;;;21.64;32.33
32875;BME280;40468;42.128;24.750;2022-07-18T03:50:32;100215.34;;;21.66;32.30
32875;BME280;40468;42.128;24.750;2022-07-18T03:52:04;100209.78;;;21.69;32.24
32875;BME280;40468;42.128;24.750;2022-07-18T03:53:36;100212.19;;;21.72;32.14
32875;BME280;40468;42.128;24.750;2022-07-18T03:55:08;100218.06;;;21.76;32.05
32875;BME280;40468;42.128;24.750;2022-07-18T03:56:40;100214.44;;;21.77;32.00
32875;BME280;40468;42.128;24.750;2022-07-18T03:58:11;100216.97;;;21.78;31.89
32875;BME280;40468;42.128;24.750;2022-07-18T03:59:42;100220.19;;;21.82;31.84
32875;BME280;40468;42.128;24.750;2022-07-18T04:01:13;100223.56;;;21.84;31.85
32875;BME280;40468;42.128;24.750;2022-07-18T04:02:45;100219.81;;;21.87;31.70
32875;BME280;40468;42.128;24.750;2022-07-18T04:04:16;100219.53;;;21.90;31.65
32875;BME280;40468;42.128;24.750;2022-07-18T04:05:48;100226.38;;;21.92;31.62
32875;BME280;40468;42.128;24.750;2022-07-18T04:07:20;100228.88;;;21.94;31.46
32875;BME280;40468;42.128;24.750;2022-07-18T04:08:51;100228.78;;;21.95;31.51
32875;BME280;40468;42.128;24.750;2022-07-18T04:10:24;100232.13;;;21.97;31.36
32875;BME280;40468;42.128;24.750;2022-07-18T04:11:56;100235.38;;;22.01;31.55
32875;BME280;40468;42.128;24.750;2022-07-18T04:13:27;100235.38;;;22.01;31.42
32875;BME280;40468;42.128;24.750;2022-07-18T04:14:59;100232.56;;;22.02;31.35
32875;BME280;40468;42.128;24.750;2022-07-18T04:16:30;100234.94;;;22.06;31.16
32875;BME280;40468;42.128;24.750;2022-07-18T04:18:01;100231.47;;;22.05;31.09
32875;BME280;40468;42.128;24.750;2022-07-18T04:19:32;100231.34;;;22.07;31.08
32875;BME280;40468;42.128;24.750;2022-07-18T04:21:04;100231.09;;;22.10;31.21
32875;BME280;40468;42.128;24.750;2022-07-18T04:22:43;100228.44;;;22.10;30.93
32875;BME280;40468;42.128;24.750;2022-07-18T04:24:14;100229.38;;;22.09;30.80
32875;BME280;40468;42.128;24.750;2022-07-18T04:25:47;100227.72;;;22.08;30.77
32875;BME280;40468;42.128;24.750;2022-07-18T04:27:18;100232.88;;;22.09;30.75
32875;BME280;40468;42.128;24.750;2022-07-18T04:28:50;100232.59;;;22.12;30.60
32875;BME280;40468;42.128;24.750;2022-07-18T04:30:22;100237.91;;;22.12;30.62
32875;BME280;40468;42.128;24.750;2022-07-18T04:31:54;100236.13;;;22.13;30.38
32875;BME280;40468;42.128;24.750;2022-07-18T04:33:26;100239.59;;;22.13;30.70
32875;BME280;40468;42.128;24.750;2022-07-18T04:34:57;100240.56;;;22.12;30.62
32875;BME280;40468;42.128;24.750;2022-07-18T04:36:28;100236.13;;;22.13;30.58
32875;BME280;40468;42.128;24.750;2022-07-18T04:38:00;100238.50;;;22.16;30.55
32875;BME280;40468;42.128;24.750;2022-07-18T04:39:31;100240.94;;;22.19;30.59
32875;BME280;40468;42.128;24.750;2022-07-18T04:41:03;100243.44;;;22.20;30.35
32875;BME280;40468;42.128;24.750;2022-07-18T04:42:35;100248.34;;;22.25;30.27
32875;BME280;40468;42.128;24.750;2022-07-18T04:44:07;100253.50;;;22.26;30.03
32875;BME280;40468;42.128;24.750;2022-07-18T04:45:39;100242.06;;;22.26;30.06
32875;BME280;40468;42.128;24.750;2022-07-18T04:47:10;100248.91;;;22.29;29.83
32875;BME280;40468;42.128;24.750;2022-07-18T04:48:42;100250.47;;;22.31;29.82
32875;BME280;40468;42.128;24.750;2022-07-18T04:50:13;100258.16;;;22.34;29.82
32875;BME280;40468;42.128;24.750;2022-07-18T04:51:45;100261.38;;;22.38;29.70
32875;BME280;40468;42.128;24.750;2022-07-18T04:53:17;100259.28;;;22.41;29.65
32875;BME280;40468;42.128;24.750;2022-07-18T04:54:48;100266.72;;;22.47;29.90
32875;BME280;40468;42.128;24.750;2022-07-18T04:56:22;100259.72;;;22.46;29.84
32875;BME280;40468;42.128;24.750;2022-07-18T04:57:53;100271.75;;;22.51;29.62
32875;BME280;40468;42.128;24.750;2022-07-18T04:59:25;100270.63;;;22.53;29.59
32875;BME280;40468;42.128;24.750;2022-07-18T05:00:56;100268.44;;;22.58;29.93
32875;BME280;40468;42.128;24.750;2022-07-18T05:02:27;100276.13;;;22.61;29.77
32875;BME280;40468;42.128;24.750;2022-07-18T05:03:58;100278.66;;;22.63;29.38
32875;BME280;40468;42.128;24.750;2022-07-18T05:05:29;100282.00;;;22.65;29.50
32875;BME280;40468;42.128;24.750;2022-07-18T05:07:01;100280.78;;;22.69;29.61
32875;BME280;40468;42.128;24.750;2022-07-18T05:08:32;100278.53;;;22.74;29.54
32875;BME280;40468;42.128;24.750;2022-07-18T05:10:05;100285.25;;;22.78;29.46
32875;BME280;40468;42.128;24.750;2022-07-18T05:11:39;100284.69;;;22.75;29.38
32875;BME280;40468;42.128;24.750;2022-07-18T05:13:10;100283.56;;;22.77;29.53
32875;BME280;40468;42.128;24.750;2022-07-18T05:14:42;100284.00;;;22.82;29.62
32875;BME280;40468;42.128;24.750;2022-07-18T05:16:14;100281.22;;;22.84;29.54
32875;BME280;40468;42.128;24.750;2022-07-18T05:17:45;100282.50;;;22.89;29.75
32875;BME280;40468;42.128;24.750;2022-07-18T05:19:16;100282.06;;;22.94;29.68
32875;BME280;40468;42.128;24.750;2022-07-18T05:20:47;100291.63;;;22.97;29.57
32875;BME280;40468;42.128;24.750;2022-07-18T05:22:20;100287.97;;;22.98;29.68
32875;BME280;40468;42.128;24.750;2022-07-18T05:23:50;100287.97;;;22.98;29.48
32875;BME280;40468;42.128;24.750;2022-07-18T05:25:22;100286.03;;;23.00;29.71
32875;BME280;40468;42.128;24.750;2022-07-18T05:26:55;100286.47;;;23.05;29.90
32875;BME280;40468;42.128;24.750;2022-07-18T05:28:26;100283.53;;;23.08;29.83
32875;BME280;40468;42.128;24.750;2022-07-18T05:29:58;100283.25;;;23.11;29.91
32875;BME280;40468;42.128;24.750;2022-07-18T05:31:30;100285.63;;;23.14;29.60
32875;BME280;40468;42.128;24.750;2022-07-18T05:33:01;100289.69;;;23.18;29.55
32875;BME280;40468;42.128;24.750;2022-07-18T05:34:34;100291.09;;;23.22;29.78
32875;BME280;40468;42.128;24.750;2022-07-18T05:36:06;100285.34;;;23.27;29.71
32875;BME280;40468;42.128;24.750;2022-07-18T05:37:38;100291.50;;;23.27;29.69
32875;BME280;40468;42.128;24.750;2022-07-18T05:39:09;100287.44;;;23.33;29.60
32875;BME280;40468;42.128;24.750;2022-07-18T05:40:40;100284.66;;;23.34;29.44
32875;BME280;40468;42.128;24.750;2022-07-18T05:42:13;100272.91;;;23.27;29.30
32875;BME280;40468;42.128;24.750;2022-07-18T05:43:45;100300.19;;;23.39;29.03
32875;BME280;40468;42.128;24.750;2022-07-18T05:45:16;100292.19;;;23.39;29.00
32875;BME280;40468;42.128;24.750;2022-07-18T05:46:48;100287.16;;;23.36;29.05
32875;BME280;40468;42.128;24.750;2022-07-18T05:48:20;100284.66;;;23.34;28.81
32875;BME280;40468;42.128;24.750;2022-07-18T05:49:52;100279.19;;;23.36;28.84
32875;BME280;40468;42.128;24.750;2022-07-18T05:51:23;100279.63;;;23.41;29.13
32875;BME280;40468;42.128;24.750;2022-07-18T05:52:55;100281.59;;;23.49;29.41
32875;BME280;40468;42.128;24.750;2022-07-18T05:54:27;100286.34;;;23.55;29.31
32875;BME280;40468;42.128;24.750;2022-07-18T05:55:58;100277.81;;;23.61;29.46
32875;BME280;40468;42.128;24.750;2022-07-18T05:57:31;100280.31;;;23.62;29.53
32875;BME280;40468;42.128;24.750;2022-07-18T05:59:03;100276.69;;;23.64;29.07
32875;BME280;40468;42.128;24.750;2022-07-18T06:00:34;100274.97;;;23.62;29.38
32875;BME280;40468;42.128;24.750;2022-07-18T06:02:06;100272.88;;;23.66;29.21
32875;BME280;40468;42.128;24.750;2022-07-18T06:03:37;100265.50;;;23.70;28.73
32875;BME280;40468;42.128;24.750;2022-07-18T06:05:09;100273.19;;;23.73;28.79
32875;BME280;40468;42.128;24.750;2022-07-18T06:06:40;100269.13;;;23.78;28.79
32875;BME280;40468;42.128;24.750;2022-07-18T06:08:12;100264.91;;;23.86;28.62
32875;BME280;40468;42.128;24.750;2022-07-18T06:09:43;100259.56;;;23.95;28.63
32875;BME280;40468;42.128;24.750;2022-07-18T06:11:14;100258.00;;;24.02;28.81
32875;BME280;40468;42.128;24.750;2022-07-18T06:12:47;100256.03;;;24.04;29.01
32875;BME280;40468;42.128;24.750;2022-07-18T06:14:20;100265.53;;;24.07;28.40
32875;BME280;40468;42.128;24.750;2022-07-18T06:15:51;100254.22;;;24.05;28.50
32875;BME280;40468;42.128;24.750;2022-07-18T06:17:23;100256.88;;;24.05;28.70
32875;BME280;40468;42.128;24.750;2022-07-18T06:18:55;100249.56;;;24.07;28.36
32875;BME280;40468;42.128;24.750;2022-07-18T06:20:26;100263.28;;;24.12;28.07
32875;BME280;40468;42.128;24.750;2022-07-18T06:21:58;100263.00;;;24.15;28.09
32875;BME280;40468;42.128;24.750;2022-07-18T06:23:30;100260.88;;;24.19;27.98
32875;BME280;40468;42.128;24.750;2022-07-18T06:25:02;100258.50;;;24.25;27.98
32875;BME280;40468;42.128;24.750;2022-07-18T06:26:34;100259.69;;;24.31;27.67
32875;BME280;40468;42.128;24.750;2022-07-18T06:28:07;100266.25;;;24.37;27.90
32875;BME280;40468;42.128;24.750;2022-07-18T06:29:39;100259.56;;;24.42;27.86
32875;BME280;40468;42.128;24.750;2022-07-18T06:31:10;100260.66;;;24.49;27.64
32875;BME280;40468;42.128;24.750;2022-07-18T06:32:45;100269.88;;;24.55;28.07
32875;BME280;40468;42.128;24.750;2022-07-18T06:34:16;100263.41;;;24.58;27.79
32875;BME280;40468;42.128;24.750;2022-07-18T06:35:48;100256.81;;;24.62;27.96
32875;BME280;40468;42.128;24.750;2022-07-18T06:37:19;100261.22;;;24.71;28.23
32875;BME280;40468;42.128;24.750;2022-07-18T06:38:51;100253.34;;;24.79;28.16
32875;BME280;40468;42.128;24.750;2022-07-18T06:40:23;100258.59;;;24.89;28.13
32875;BME280;40468;42.128;24.750;2022-07-18T06:41:55;100259.81;;;24.94;28.25
32875;BME280;40468;42.128;24.750;2022-07-18T06:43:28;100260.88;;;25.02;27.80
32875;BME280;40468;42.128;24.750;2022-07-18T06:44:59;100263.09;;;25.06;27.20
32875;BME280;40468;42.128;24.750;2022-07-18T06:46:31;100261.78;;;25.10;27.04
32875;BME280;40468;42.128;24.750;2022-07-18T06:48:03;100264.88;;;25.15;27.21
32875;BME280;40468;42.128;24.750;2022-07-18T06:49:34;100257.28;;;25.21;27.17
32875;BME280;40468;42.128;24.750;2022-07-18T06:51:06;100265.94;;;25.23;27.20
32875;BME280;40468;42.128;24.750;2022-07-18T06:52:38;100259.34;;;25.27;26.88
32875;BME280;40468;42.128;24.750;2022-07-18T06:54:10;100256.50;;;25.28;26.74
32875;BME280;40468;42.128;24.750;2022-07-18T06:55:42;100256.06;;;25.33;27.03
32875;BME280;40468;42.128;24.750;2022-07-18T06:57:13;100257.09;;;25.40;26.92
32875;BME280;40468;42.128;24.750;2022-07-18T06:58:46;100263.34;;;25.49;27.30
32875;BME280;40468;42.128;24.750;2022-07-18T07:00:20;100256.72;;;25.53;27.21
32875;BME280;40468;42.128;24.750;2022-07-18T07:01:52;100262.09;;;25.61;27.03
32875;BME280;40468;42.128;24.750;2022-07-18T07:03:23;100259.34;;;25.71;26.64
32875;BME280;40468;42.128;24.750;2022-07-18T07:04:55;100260.38;;;25.78;26.45
32875;BME280;40468;42.128;24.750;2022-07-18T07:06:26;100265.00;;;25.85;26.37
32875;BME280;40468;42.128;24.750;2022-07-18T07:07:58;100257.19;;;25.92;26.45
32875;BME280;40468;42.128;24.750;2022-07-18T07:09:29;100263.72;;;25.98;25.87
32875;BME280;40468;42.128;24.750;2022-07-18T07:11:01;100256.06;;;26.03;26.10
32875;BME280;40468;42.128;24.750;2022-07-18T07:12:37;100259.28;;;26.06;26.38
32875;BME280;40468;42.128;24.750;2022-07-18T07:14:10;100262.28;;;26.12;26.20
32875;BME280;40468;42.128;24.750;2022-07-18T07:15:42;100253.97;;;26.15;26.64
32875;BME280;40468;42.128;24.750;2022-07-18T07:17:13;100253.16;;;26.22;26.70
32875;BME280;40468;42.128;24.750;2022-07-18T07:18:45;100257.72;;;26.30;26.83
32875;BME280;40468;42.128;24.750;2022-07-18T07:20:16;100256.91;;;26.38;26.44
32875;BME280;40468;42.128;24.750;2022-07-18T07:21:51;100256.81;;;26.47;26.59
32875;BME280;40468;42.128;24.750;2022-07-18T07:23:22;100262.38;;;26.54;26.59
32875;BME280;40468;42.128;24.750;2022-07-18T07:24:54;100258.72;;;26.63;26.38
32875;BME280;40468;42.128;24.750;2022-07-18T07:26:25;100250.56;;;26.73;26.54
32875;BME280;40468;42.128;24.750;2022-07-18T07:27:57;100247.91;;;26.81;25.99
32875;BME280;40468;42.128;24.750;2022-07-18T07:29:30;100252.28;;;26.90;25.68
32875;BME280;40468;42.128;24.750;2022-07-18T07:31:01;100254.13;;;26.98;25.47
32875;BME280;40468;42.128;24.750;2022-07-18T07:32:34;100253.97;;;27.08;25.40
32875;BME280;40468;42.128;24.750;2022-07-18T07:34:05;100249.50;;;27.16;25.75
32875;BME280;40468;42.128;24.750;2022-07-18T07:35:37;100249.66;;;27.23;25.36
32875;BME280;40468;42.128;24.750;2022-07-18T07:37:09;100242.16;;;27.35;25.64
32875;BME280;40468;42.128;24.750;2022-07-18T07:38:40;100255.34;;;27.44;25.13
32875;BME280;40468;42.128;24.750;2022-07-18T07:40:12;100249.66;;;27.56;24.96
32875;BME280;40468;42.128;24.750;2022-07-18T07:41:43;100254.00;;;27.65;24.38
32875;BME280;40468;42.128;24.750;2022-07-18T07:43:15;100255.34;;;27.61;23.74
32875;BME280;40468;42.128;24.750;2022-07-18T07:44:48;100249.31;;;27.59;23.93
32875;BME280;40468;42.128;24.750;2022-07-18T07:46:20;100250.69;;;27.63;24.22
32875;BME280;40468;42.128;24.750;2022-07-18T07:47:51;100243.97;;;27.67;24.05
32875;BME280;40468;42.128;24.750;2022-07-18T07:49:23;100253.16;;;27.73;24.16
32875;BME280;40468;42.128;24.750;2022-07-18T07:50:54;100247.16;;;27.79;24.09
32875;BME280;40468;42.128;24.750;2022-07-18T07:52:26;100248.13;;;27.86;24.16
32875;BME280;40468;42.128;24.750;2022-07-18T07:53:58;100245.97;;;27.89;23.68